LHR weather

London Heathrow Airport
London, England, United Kingdom

Public forecast

Using degrees Celsius for public forecast. Weather courtesy of forecast.io.

METAR (pilot weather report)

Retrieved 2017/02/24 14:20 UTC (27 minutes ago):

EGLL 241420Z AUTO 30009KT 9999 BKN041 10/00 Q1018 NOSIG

TAF (pilot weather forecast)

Retrieved 2017/02/24 12:16 UTC (3 hours ago):

TAF EGLL 241054Z 2412/2518 31010KT 9999 SCT032 BECMG 2416/2419 25005KT BECMG 2508/2511 22015G25KT TEMPO 2510/2518 8000 -RA PROB40 TEMPO 2514/2518 4500 RADZ BKN009